sensor_id;sensor_type;location;lat;lon;timestamp;P1;durP1;ratioP1;P2;durP2;ratioP2
19798;SDS011;10059;59.850;10.454;2023-02-22T00:01:31;12.00;;;5.50;;
19798;SDS011;10059;59.850;10.454;2023-02-22T00:04:02;12.37;;;5.23;;
19798;SDS011;10059;59.850;10.454;2023-02-22T00:06:31;10.33;;;5.37;;
19798;SDS011;10059;59.850;10.454;2023-02-22T00:08:58;10.80;;;4.90;;
19798;SDS011;10059;59.850;10.454;2023-02-22T00:11:26;10.13;;;4.87;;
19798;SDS011;10059;59.850;10.454;2023-02-22T00:13:53;10.43;;;4.60;;
19798;SDS011;10059;59.850;10.454;2023-02-22T00:16:21;8.87;;;4.40;;
19798;SDS011;10059;59.850;10.454;2023-02-22T00:18:49;10.67;;;5.90;;
19798;SDS011;10059;59.850;10.454;2023-02-22T00:21:18;9.30;;;4.97;;
19798;SDS011;10059;59.850;10.454;2023-02-22T00:23:46;12.30;;;6.03;;
19798;SDS011;10059;59.850;10.454;2023-02-22T00:26:15;11.93;;;6.30;;
19798;SDS011;10059;59.850;10.454;2023-02-22T00:28:44;13.50;;;7.30;;
19798;SDS011;10059;59.850;10.454;2023-02-22T00:31:12;17.53;;;7.30;;
19798;SDS011;10059;59.850;10.454;2023-02-22T00:33:39;18.83;;;7.47;;
19798;SDS011;10059;59.850;10.454;2023-02-22T00:36:07;14.33;;;6.53;;
19798;SDS011;10059;59.850;10.454;2023-02-22T00:38:36;15.67;;;6.83;;
19798;SDS011;10059;59.850;10.454;2023-02-22T00:41:04;16.57;;;6.70;;
19798;SDS011;10059;59.850;10.454;2023-02-22T00:43:31;15.47;;;7.17;;
19798;SDS011;10059;59.850;10.454;2023-02-22T00:45:58;15.70;;;6.33;;
19798;SDS011;10059;59.850;10.454;2023-02-22T00:48:25;15.23;;;6.80;;
19798;SDS011;10059;59.850;10.454;2023-02-22T00:50:52;13.97;;;6.20;;
19798;SDS011;10059;59.850;10.454;2023-02-22T00:53:19;13.13;;;5.73;;
19798;SDS011;10059;59.850;10.454;2023-02-22T00:55:48;12.63;;;6.23;;
19798;SDS011;10059;59.850;10.454;2023-02-22T00:58:15;12.73;;;6.10;;
19798;SDS011;10059;59.850;10.454;2023-02-22T01:00:42;15.57;;;6.00;;
19798;SDS011;10059;59.850;10.454;2023-02-22T01:03:11;12.67;;;6.17;;
19798;SDS011;10059;59.850;10.454;2023-02-22T01:05:39;12.83;;;5.70;;
19798;SDS011;10059;59.850;10.454;2023-02-22T01:08:07;10.73;;;5.63;;
19798;SDS011;10059;59.850;10.454;2023-02-22T01:10:35;9.63;;;5.17;;
19798;SDS011;10059;59.850;10.454;2023-02-22T01:13:04;12.10;;;5.80;;
19798;SDS011;10059;59.850;10.454;2023-02-22T01:15:33;12.40;;;5.70;;
19798;SDS011;10059;59.850;10.454;2023-02-22T01:18:00;10.87;;;5.37;;
19798;SDS011;10059;59.850;10.454;2023-02-22T01:20:29;13.23;;;5.83;;
19798;SDS011;10059;59.850;10.454;2023-02-22T01:22:57;12.10;;;5.60;;
19798;SDS011;10059;59.850;10.454;2023-02-22T01:25:27;11.67;;;5.27;;
19798;SDS011;10059;59.850;10.454;2023-02-22T01:27:56;11.73;;;5.53;;
19798;SDS011;10059;59.850;10.454;2023-02-22T01:30:26;10.67;;;5.23;;
19798;SDS011;10059;59.850;10.454;2023-02-22T01:32:54;9.67;;;5.47;;
19798;SDS011;10059;59.850;10.454;2023-02-22T01:35:23;14.03;;;5.77;;
19798;SDS011;10059;59.850;10.454;2023-02-22T01:37:52;11.17;;;5.30;;
19798;SDS011;10059;59.850;10.454;2023-02-22T01:40:21;13.43;;;5.00;;
19798;SDS011;10059;59.850;10.454;2023-02-22T01:42:51;13.23;;;5.67;;
19798;SDS011;10059;59.850;10.454;2023-02-22T01:45:43;9.87;;;5.37;;
19798;SDS011;10059;59.850;10.454;2023-02-22T01:48:14;11.43;;;4.77;;
19798;SDS011;10059;59.850;10.454;2023-02-22T01:50:46;11.17;;;4.97;;
19798;SDS011;10059;59.850;10.454;2023-02-22T01:53:17;11.17;;;4.90;;
19798;SDS011;10059;59.850;10.454;2023-02-22T01:55:45;8.73;;;5.00;;
19798;SDS011;10059;59.850;10.454;2023-02-22T01:58:13;8.03;;;4.27;;
19798;SDS011;10059;59.850;10.454;2023-02-22T02:00:45;7.70;;;4.13;;
19798;SDS011;10059;59.850;10.454;2023-02-22T02:03:13;8.83;;;4.37;;
19798;SDS011;10059;59.850;10.454;2023-02-22T02:05:42;7.67;;;4.17;;
19798;SDS011;10059;59.850;10.454;2023-02-22T02:08:13;9.63;;;4.13;;
19798;SDS011;10059;59.850;10.454;2023-02-22T02:10:49;7.07;;;4.40;;
19798;SDS011;10059;59.850;10.454;2023-02-22T02:13:18;6.97;;;3.60;;
19798;SDS011;10059;59.850;10.454;2023-02-22T02:15:46;13.03;;;4.23;;
19798;SDS011;10059;59.850;10.454;2023-02-22T02:18:16;7.87;;;4.17;;
19798;SDS011;10059;59.850;10.454;2023-02-22T02:20:47;8.97;;;4.00;;
19798;SDS011;10059;59.850;10.454;2023-02-22T02:23:34;10.93;;;4.47;;
19798;SDS011;10059;59.850;10.454;2023-02-22T02:29:10;7.73;;;4.10;;
19798;SDS011;10059;59.850;10.454;2023-02-22T02:32:02;9.60;;;4.47;;
19798;SDS011;10059;59.850;10.454;2023-02-22T02:34:46;8.33;;;4.60;;
19798;SDS011;10059;59.850;10.454;2023-02-22T02:37:19;8.30;;;4.40;;
19798;SDS011;10059;59.850;10.454;2023-02-22T02:39:52;9.73;;;4.20;;
19798;SDS011;10059;59.850;10.454;2023-02-22T02:42:27;8.93;;;4.60;;
19798;SDS011;10059;59.850;10.454;2023-02-22T02:45:00;8.03;;;4.47;;
19798;SDS011;10059;59.850;10.454;2023-02-22T02:47:31;7.93;;;4.13;;
19798;SDS011;10059;59.850;10.454;2023-02-22T02:50:05;8.93;;;4.20;;
19798;SDS011;10059;59.850;10.454;2023-02-22T02:52:34;11.03;;;4.87;;
19798;SDS011;10059;59.850;10.454;2023-02-22T02:55:04;10.27;;;4.70;;
19798;SDS011;10059;59.850;10.454;2023-02-22T02:57:33;8.03;;;3.60;;
19798;SDS011;10059;59.850;10.454;2023-02-22T03:00:00;7.77;;;3.73;;
19798;SDS011;10059;59.850;10.454;2023-02-22T03:02:37;7.33;;;4.30;;
19798;SDS011;10059;59.850;10.454;2023-02-22T03:05:17;8.40;;;3.97;;
19798;SDS011;10059;59.850;10.454;2023-02-22T03:07:58;6.43;;;3.77;;
19798;SDS011;10059;59.850;10.454;2023-02-22T03:10:37;9.40;;;3.80;;
19798;SDS011;10059;59.850;10.454;2023-02-22T03:13:13;7.60;;;4.03;;
19798;SDS011;10059;59.850;10.454;2023-02-22T03:15:48;7.00;;;3.73;;
19798;SDS011;10059;59.850;10.454;2023-02-22T03:18:22;7.63;;;3.60;;
19798;SDS011;10059;59.850;10.454;2023-02-22T03:20:54;7.93;;;3.70;;
19798;SDS011;10059;59.850;10.454;2023-02-22T03:23:27;7.00;;;3.57;;
19798;SDS011;10059;59.850;10.454;2023-02-22T03:25:58;7.87;;;3.40;;
19798;SDS011;10059;59.850;10.454;2023-02-22T03:28:29;7.90;;;3.83;;
19798;SDS011;10059;59.850;10.454;2023-02-22T03:30:59;6.37;;;3.43;;
19798;SDS011;10059;59.850;10.454;2023-02-22T03:33:31;8.00;;;3.53;;
19798;SDS011;10059;59.850;10.454;2023-02-22T03:36:02;7.93;;;3.63;;
19798;SDS011;10059;59.850;10.454;2023-02-22T03:38:34;7.37;;;3.93;;
19798;SDS011;10059;59.850;10.454;2023-02-22T03:41:02;7.40;;;4.00;;
19798;SDS011;10059;59.850;10.454;2023-02-22T03:43:33;5.37;;;3.47;;
19798;SDS011;10059;59.850;10.454;2023-02-22T03:46:03;6.73;;;3.63;;
19798;SDS011;10059;59.850;10.454;2023-02-22T03:48:37;7.27;;;3.53;;
19798;SDS011;10059;59.850;10.454;2023-02-22T03:51:09;6.07;;;3.47;;
19798;SDS011;10059;59.850;10.454;2023-02-22T03:53:38;6.27;;;3.60;;
19798;SDS011;10059;59.850;10.454;2023-02-22T03:56:06;6.80;;;3.33;;
19798;SDS011;10059;59.850;10.454;2023-02-22T03:58:36;5.40;;;3.20;;
19798;SDS011;10059;59.850;10.454;2023-02-22T04:01:07;6.27;;;3.60;;
19798;SDS011;10059;59.850;10.454;2023-02-22T04:03:36;5.17;;;3.07;;
19798;SDS011;10059;59.850;10.454;2023-02-22T04:06:04;7.73;;;3.10;;
19798;SDS011;10059;59.850;10.454;2023-02-22T04:08:31;5.80;;;3.17;;
19798;SDS011;10059;59.850;10.454;2023-02-22T04:10:58;6.33;;;3.50;;
19798;SDS011;10059;59.850;10.454;2023-02-22T04:13:25;5.03;;;3.13;;
19798;SDS011;10059;59.850;10.454;2023-02-22T04:15:52;4.93;;;3.20;;
19798;SDS011;10059;59.850;10.454;2023-02-22T04:18:19;6.30;;;3.17;;
19798;SDS011;10059;59.850;10.454;2023-02-22T04:20:47;4.27;;;3.03;;
19798;SDS011;10059;59.850;10.454;2023-02-22T04:23:14;6.50;;;3.20;;
19798;SDS011;10059;59.850;10.454;2023-02-22T04:25:42;7.20;;;2.93;;
19798;SDS011;10059;59.850;10.454;2023-02-22T04:28:08;4.97;;;3.10;;
19798;SDS011;10059;59.850;10.454;2023-02-22T04:30:36;4.20;;;2.60;;
19798;SDS011;10059;59.850;10.454;2023-02-22T04:33:02;6.33;;;2.90;;
19798;SDS011;10059;59.850;10.454;2023-02-22T04:35:29;4.30;;;3.00;;
19798;SDS011;10059;59.850;10.454;2023-02-22T04:37:57;6.33;;;2.83;;
19798;SDS011;10059;59.850;10.454;2023-02-22T04:40:24;5.43;;;3.00;;
19798;SDS011;10059;59.850;10.454;2023-02-22T04:42:51;5.67;;;3.20;;
19798;SDS011;10059;59.850;10.454;2023-02-22T04:45:18;4.83;;;2.83;;
19798;SDS011;10059;59.850;10.454;2023-02-22T04:47:45;6.63;;;2.97;;
19798;SDS011;10059;59.850;10.454;2023-02-22T04:50:12;4.80;;;2.87;;
19798;SDS011;10059;59.850;10.454;2023-02-22T04:52:39;6.17;;;3.00;;
19798;SDS011;10059;59.850;10.454;2023-02-22T04:55:08;3.93;;;2.60;;
19798;SDS011;10059;59.850;10.454;2023-02-22T04:57:35;4.20;;;3.00;;
19798;SDS011;10059;59.850;10.454;2023-02-22T05:00:02;5.70;;;2.90;;
19798;SDS011;10059;59.850;10.454;2023-02-22T05:02:29;7.20;;;3.00;;
19798;SDS011;10059;59.850;10.454;2023-02-22T05:04:56;6.53;;;3.20;;
19798;SDS011;10059;59.850;10.454;2023-02-22T05:07:23;4.87;;;3.03;;
19798;SDS011;10059;59.850;10.454;2023-02-22T05:09:50;5.17;;;2.27;;
19798;SDS011;10059;59.850;10.454;2023-02-22T05:12:18;5.77;;;2.40;;
19798;SDS011;10059;59.850;10.454;2023-02-22T05:14:45;5.37;;;2.67;;
19798;SDS011;10059;59.850;10.454;2023-02-22T05:17:12;4.10;;;2.40;;
19798;SDS011;10059;59.850;10.454;2023-02-22T05:19:39;3.57;;;2.07;;
19798;SDS011;10059;59.850;10.454;2023-02-22T05:22:06;3.57;;;2.23;;
19798;SDS011;10059;59.850;10.454;2023-02-22T05:24:32;3.03;;;2.10;;
19798;SDS011;10059;59.850;10.454;2023-02-22T05:26:59;3.53;;;2.20;;
19798;SDS011;10059;59.850;10.454;2023-02-22T05:29:28;3.17;;;2.30;;
19798;SDS011;10059;59.850;10.454;2023-02-22T05:31:54;3.97;;;2.47;;
19798;SDS011;10059;59.850;10.454;2023-02-22T05:34:22;6.20;;;2.90;;
19798;SDS011;10059;59.850;10.454;2023-02-22T05:36:49;5.10;;;2.33;;
19798;SDS011;10059;59.850;10.454;2023-02-22T05:39:16;3.30;;;2.17;;
19798;SDS011;10059;59.850;10.454;2023-02-22T05:41:42;3.53;;;2.50;;
19798;SDS011;10059;59.850;10.454;2023-02-22T05:44:09;3.50;;;2.40;;
19798;SDS011;10059;59.850;10.454;2023-02-22T05:46:37;3.20;;;2.30;;
19798;SDS011;10059;59.850;10.454;2023-02-22T05:49:04;2.70;;;2.00;;
19798;SDS011;10059;59.850;10.454;2023-02-22T05:51:31;4.27;;;2.37;;
19798;SDS011;10059;59.850;10.454;2023-02-22T05:53:58;4.77;;;2.60;;
19798;SDS011;10059;59.850;10.454;2023-02-22T05:56:26;3.23;;;2.20;;
19798;SDS011;10059;59.850;10.454;2023-02-22T05:58:54;3.73;;;2.30;;
19798;SDS011;10059;59.850;10.454;2023-02-22T06:01:21;5.47;;;2.40;;
19798;SDS011;10059;59.850;10.454;2023-02-22T06:03:50;5.30;;;2.37;;
19798;SDS011;10059;59.850;10.454;2023-02-22T06:06:17;4.77;;;2.43;;
19798;SDS011;10059;59.850;10.454;2023-02-22T06:08:45;4.30;;;2.43;;
19798;SDS011;10059;59.850;10.454;2023-02-22T06:11:12;3.57;;;2.27;;
19798;SDS011;10059;59.850;10.454;2023-02-22T06:13:39;4.40;;;2.53;;
19798;SDS011;10059;59.850;10.454;2023-02-22T06:16:06;4.30;;;2.70;;
19798;SDS011;10059;59.850;10.454;2023-02-22T06:18:33;5.07;;;2.40;;
19798;SDS011;10059;59.850;10.454;2023-02-22T06:21:01;4.87;;;2.50;;
19798;SDS011;10059;59.850;10.454;2023-02-22T06:23:28;5.17;;;2.60;;
19798;SDS011;10059;59.850;10.454;2023-02-22T06:25:55;5.00;;;2.90;;
19798;SDS011;10059;59.850;10.454;2023-02-22T06:28:22;4.25;;;3.22;;
19798;SDS011;10059;59.850;10.454;2023-02-22T06:30:50;4.40;;;2.70;;
19798;SDS011;10059;59.850;10.454;2023-02-22T06:33:17;6.30;;;2.73;;
19798;SDS011;10059;59.850;10.454;2023-02-22T06:35:44;4.60;;;2.60;;
19798;SDS011;10059;59.850;10.454;2023-02-22T06:38:12;3.57;;;2.47;;
19798;SDS011;10059;59.850;10.454;2023-02-22T06:40:47;4.53;;;2.80;;
19798;SDS011;10059;59.850;10.454;2023-02-22T06:43:14;6.43;;;2.73;;
19798;SDS011;10059;59.850;10.454;2023-02-22T06:45:40;5.23;;;3.00;;
19798;SDS011;10059;59.850;10.454;2023-02-22T06:48:07;7.60;;;3.03;;
19798;SDS011;10059;59.850;10.454;2023-02-22T06:50:34;4.80;;;2.83;;
19798;SDS011;10059;59.850;10.454;2023-02-22T06:53:01;4.20;;;2.53;;
19798;SDS011;10059;59.850;10.454;2023-02-22T06:55:31;6.87;;;2.93;;
19798;SDS011;10059;59.850;10.454;2023-02-22T06:57:59;5.43;;;3.07;;
19798;SDS011;10059;59.850;10.454;2023-02-22T07:00:27;7.43;;;4.00;;
19798;SDS011;10059;59.850;10.454;2023-02-22T07:02:55;7.77;;;3.80;;
19798;SDS011;10059;59.850;10.454;2023-02-22T07:05:23;5.97;;;3.00;;
19798;SDS011;10059;59.850;10.454;2023-02-22T07:07:51;5.30;;;3.13;;
19798;SDS011;10059;59.850;10.454;2023-02-22T07:10:19;4.57;;;2.93;;
19798;SDS011;10059;59.850;10.454;2023-02-22T07:12:49;3.93;;;2.70;;
19798;SDS011;10059;59.850;10.454;2023-02-22T07:15:17;4.07;;;2.50;;
19798;SDS011;10059;59.850;10.454;2023-02-22T07:17:46;4.10;;;2.67;;
19798;SDS011;10059;59.850;10.454;2023-02-22T07:20:13;4.20;;;2.40;;
19798;SDS011;10059;59.850;10.454;2023-02-22T07:22:40;4.03;;;2.73;;
19798;SDS011;10059;59.850;10.454;2023-02-22T07:25:07;4.03;;;2.60;;
19798;SDS011;10059;59.850;10.454;2023-02-22T07:27:35;5.27;;;2.60;;
19798;SDS011;10059;59.850;10.454;2023-02-22T07:30:05;5.73;;;3.50;;
19798;SDS011;10059;59.850;10.454;2023-02-22T07:32:33;4.67;;;2.63;;
19798;SDS011;10059;59.850;10.454;2023-02-22T07:34:59;6.40;;;2.70;;
19798;SDS011;10059;59.850;10.454;2023-02-22T07:37:27;4.40;;;2.73;;
19798;SDS011;10059;59.850;10.454;2023-02-22T07:39:54;5.33;;;2.87;;
19798;SDS011;10059;59.850;10.454;2023-02-22T07:42:21;8.00;;;2.70;;
19798;SDS011;10059;59.850;10.454;2023-02-22T07:44:48;5.30;;;3.40;;
19798;SDS011;10059;59.850;10.454;2023-02-22T07:47:16;5.80;;;3.50;;
19798;SDS011;10059;59.850;10.454;2023-02-22T07:49:44;4.77;;;2.80;;
19798;SDS011;10059;59.850;10.454;2023-02-22T07:52:11;5.67;;;3.00;;
19798;SDS011;10059;59.850;10.454;2023-02-22T07:54:38;4.83;;;2.80;;
19798;SDS011;10059;59.850;10.454;2023-02-22T07:57:05;9.33;;;3.30;;
19798;SDS011;10059;59.850;10.454;2023-02-22T07:59:32;7.90;;;3.17;;
19798;SDS011;10059;59.850;10.454;2023-02-22T08:01:58;6.57;;;3.80;;
19798;SDS011;10059;59.850;10.454;2023-02-22T08:04:27;8.57;;;3.93;;
19798;SDS011;10059;59.850;10.454;2023-02-22T08:06:53;7.07;;;3.93;;
19798;SDS011;10059;59.850;10.454;2023-02-22T08:09:20;6.40;;;2.90;;
19798;SDS011;10059;59.850;10.454;2023-02-22T08:11:47;4.60;;;2.57;;
19798;SDS011;10059;59.850;10.454;2023-02-22T08:14:14;5.70;;;2.70;;
19798;SDS011;10059;59.850;10.454;2023-02-22T08:16:41;5.20;;;2.90;;
19798;SDS011;10059;59.850;10.454;2023-02-22T08:19:08;5.67;;;3.10;;
19798;SDS011;10059;59.850;10.454;2023-02-22T08:21:36;4.70;;;2.80;;
19798;SDS011;10059;59.850;10.454;2023-02-22T08:24:03;5.23;;;2.67;;
19798;SDS011;10059;59.850;10.454;2023-02-22T08:26:31;5.97;;;2.50;;
19798;SDS011;10059;59.850;10.454;2023-02-22T08:28:57;4.80;;;2.77;;
19798;SDS011;10059;59.850;10.454;2023-02-22T08:31:25;4.70;;;2.60;;
19798;SDS011;10059;59.850;10.454;2023-02-22T08:33:52;5.53;;;3.00;;
19798;SDS011;10059;59.850;10.454;2023-02-22T08:36:19;4.40;;;2.43;;
19798;SDS011;10059;59.850;10.454;2023-02-22T08:38:47;4.60;;;2.67;;
19798;SDS011;10059;59.850;10.454;2023-02-22T08:41:13;4.40;;;2.70;;
19798;SDS011;10059;59.850;10.454;2023-02-22T08:43:40;5.10;;;3.00;;
19798;SDS011;10059;59.850;10.454;2023-02-22T08:46:07;4.97;;;2.70;;
19798;SDS011;10059;59.850;10.454;2023-02-22T08:48:34;6.27;;;3.13;;
19798;SDS011;10059;59.850;10.454;2023-02-22T08:51:01;4.33;;;2.53;;
19798;SDS011;10059;59.850;10.454;2023-02-22T08:53:27;8.10;;;3.43;;
19798;SDS011;10059;59.850;10.454;2023-02-22T08:55:58;4.80;;;2.97;;
19798;SDS011;10059;59.850;10.454;2023-02-22T08:58:25;3.80;;;2.40;;
19798;SDS011;10059;59.850;10.454;2023-02-22T09:00:51;3.73;;;2.30;;
19798;SDS011;10059;59.850;10.454;2023-02-22T09:03:18;3.77;;;2.57;;
19798;SDS011;10059;59.850;10.454;2023-02-22T09:05:45;2.60;;;1.90;;
19798;SDS011;10059;59.850;10.454;2023-02-22T09:08:12;5.40;;;3.40;;
19798;SDS011;10059;59.850;10.454;2023-02-22T09:10:41;5.30;;;2.60;;
19798;SDS011;10059;59.850;10.454;2023-02-22T09:13:10;3.93;;;2.20;;
19798;SDS011;10059;59.850;10.454;2023-02-22T09:15:38;4.13;;;2.30;;
19798;SDS011;10059;59.850;10.454;2023-02-22T09:18:05;11.17;;;2.73;;
19798;SDS011;10059;59.850;10.454;2023-02-22T09:20:33;4.93;;;2.37;;
19798;SDS011;10059;59.850;10.454;2023-02-22T09:23:01;4.33;;;2.53;;
19798;SDS011;10059;59.850;10.454;2023-02-22T09:25:29;3.80;;;2.20;;
19798;SDS011;10059;59.850;10.454;2023-02-22T09:27:58;3.53;;;2.23;;
19798;SDS011;10059;59.850;10.454;2023-02-22T09:30:27;2.77;;;2.07;;
19798;SDS011;10059;59.850;10.454;2023-02-22T09:32:57;3.03;;;2.20;;
19798;SDS011;10059;59.850;10.454;2023-02-22T09:35:25;3.30;;;1.97;;
19798;SDS011;10059;59.850;10.454;2023-02-22T09:37:53;4.00;;;2.30;;
19798;SDS011;10059;59.850;10.454;2023-02-22T09:40:20;7.10;;;2.30;;
19798;SDS011;10059;59.850;10.454;2023-02-22T09:42:57;3.50;;;2.23;;
19798;SDS011;10059;59.850;10.454;2023-02-22T09:45:42;6.03;;;2.60;;
19798;SDS011;10059;59.850;10.454;2023-02-22T09:48:16;4.80;;;2.87;;
19798;SDS011;10059;59.850;10.454;2023-02-22T09:50:44;6.00;;;2.87;;
19798;SDS011;10059;59.850;10.454;2023-02-22T09:53:16;3.60;;;2.30;;
19798;SDS011;10059;59.850;10.454;2023-02-22T09:55:53;6.63;;;3.40;;
19798;SDS011;10059;59.850;10.454;2023-02-22T09:58:25;6.57;;;3.10;;
19798;SDS011;10059;59.850;10.454;2023-02-22T10:00:59;4.87;;;2.60;;
19798;SDS011;10059;59.850;10.454;2023-02-22T10:03:40;5.53;;;3.20;;
19798;SDS011;10059;59.850;10.454;2023-02-22T10:06:14;5.03;;;2.40;;
19798;SDS011;10059;59.850;10.454;2023-02-22T10:08:46;4.20;;;2.60;;
19798;SDS011;10059;59.850;10.454;2023-02-22T10:11:16;5.40;;;2.57;;
19798;SDS011;10059;59.850;10.454;2023-02-22T10:13:54;11.80;;;3.00;;
19798;SDS011;10059;59.850;10.454;2023-02-22T10:16:31;4.97;;;2.50;;
19798;SDS011;10059;59.850;10.454;2023-02-22T10:19:11;4.30;;;2.37;;
19798;SDS011;10059;59.850;10.454;2023-02-22T10:21:47;6.50;;;2.57;;
19798;SDS011;10059;59.850;10.454;2023-02-22T10:24:29;7.10;;;3.07;;
19798;SDS011;10059;59.850;10.454;2023-02-22T10:27:03;5.63;;;2.50;;
19798;SDS011;10059;59.850;10.454;2023-02-22T10:29:34;4.60;;;2.70;;
19798;SDS011;10059;59.850;10.454;2023-02-22T10:32:08;4.50;;;2.30;;
19798;SDS011;10059;59.850;10.454;2023-02-22T10:34:40;4.93;;;2.77;;
19798;SDS011;10059;59.850;10.454;2023-02-22T10:37:15;6.63;;;3.20;;
19798;SDS011;10059;59.850;10.454;2023-02-22T10:39:49;6.87;;;3.03;;
19798;SDS011;10059;59.850;10.454;2023-02-22T10:42:18;8.20;;;3.30;;
19798;SDS011;10059;59.850;10.454;2023-02-22T10:44:50;7.63;;;3.37;;
19798;SDS011;10059;59.850;10.454;2023-02-22T10:47:18;7.80;;;3.20;;
19798;SDS011;10059;59.850;10.454;2023-02-22T10:49:47;6.60;;;3.07;;
19798;SDS011;10059;59.850;10.454;2023-02-22T10:52:18;7.73;;;3.00;;
19798;SDS011;10059;59.850;10.454;2023-02-22T10:54:50;5.97;;;2.50;;
19798;SDS011;10059;59.850;10.454;2023-02-22T10:57:19;5.77;;;2.80;;
19798;SDS011;10059;59.850;10.454;2023-02-22T10:59:49;4.00;;;2.43;;
19798;SDS011;10059;59.850;10.454;2023-02-22T11:02:19;7.37;;;2.60;;
19798;SDS011;10059;59.850;10.454;2023-02-22T11:04:49;5.33;;;2.60;;
19798;SDS011;10059;59.850;10.454;2023-02-22T11:07:18;4.67;;;2.20;;
19798;SDS011;10059;59.850;10.454;2023-02-22T11:09:52;5.57;;;2.20;;
19798;SDS011;10059;59.850;10.454;2023-02-22T11:12:24;6.07;;;2.73;;
19798;SDS011;10059;59.850;10.454;2023-02-22T11:14:52;4.70;;;2.70;;
19798;SDS011;10059;59.850;10.454;2023-02-22T11:17:25;4.20;;;2.17;;
19798;SDS011;10059;59.850;10.454;2023-02-22T11:19:55;3.77;;;2.50;;
19798;SDS011;10059;59.850;10.454;2023-02-22T11:22:24;9.67;;;3.60;;
19798;SDS011;10059;59.850;10.454;2023-02-22T11:24:55;6.23;;;3.07;;
19798;SDS011;10059;59.850;10.454;2023-02-22T11:27:27;3.87;;;2.33;;
19798;SDS011;10059;59.850;10.454;2023-02-22T11:30:06;3.93;;;2.10;;
19798;SDS011;10059;59.850;10.454;2023-02-22T11:32:43;5.93;;;2.37;;
19798;SDS011;10059;59.850;10.454;2023-02-22T11:38:11;5.90;;;2.37;;
19798;SDS011;10059;59.850;10.454;2023-02-22T11:40:45;10.33;;;4.73;;
19798;SDS011;10059;59.850;10.454;2023-02-22T11:43:14;7.60;;;3.17;;
19798;SDS011;10059;59.850;10.454;2023-02-22T11:45:55;11.10;;;5.27;;
19798;SDS011;10059;59.850;10.454;2023-02-22T11:48:28;11.83;;;6.27;;
19798;SDS011;10059;59.850;10.454;2023-02-22T11:51:02;28.03;;;13.80;;
19798;SDS011;10059;59.850;10.454;2023-02-22T11:53:41;17.33;;;8.70;;
19798;SDS011;10059;59.850;10.454;2023-02-22T11:56:21;17.43;;;10.13;;
19798;SDS011;10059;59.850;10.454;2023-02-22T11:58:52;5.43;;;3.20;;
19798;SDS011;10059;59.850;10.454;2023-02-22T12:01:28;3.97;;;2.50;;
19798;SDS011;10059;59.850;10.454;2023-02-22T12:04:15;3.80;;;2.40;;
19798;SDS011;10059;59.850;10.454;2023-02-22T12:07:00;3.33;;;2.20;;
19798;SDS011;10059;59.850;10.454;2023-02-22T12:09:41;5.50;;;2.10;;
19798;SDS011;10059;59.850;10.454;2023-02-22T12:12:14;3.57;;;1.90;;
19798;SDS011;10059;59.850;10.454;2023-02-22T12:14:48;3.57;;;2.17;;
19798;SDS011;10059;59.850;10.454;2023-02-22T12:20:16;3.87;;;2.10;;
19798;SDS011;10059;59.850;10.454;2023-02-22T12:22:59;4.70;;;2.30;;
19798;SDS011;10059;59.850;10.454;2023-02-22T12:25:34;4.57;;;2.40;;
19798;SDS011;10059;59.850;10.454;2023-02-22T12:28:09;4.80;;;2.20;;
19798;SDS011;10059;59.850;10.454;2023-02-22T12:30:44;4.30;;;2.10;;
19798;SDS011;10059;59.850;10.454;2023-02-22T12:33:18;4.23;;;2.00;;
19798;SDS011;10059;59.850;10.454;2023-02-22T12:35:51;5.57;;;2.10;;
19798;SDS011;10059;59.850;10.454;2023-02-22T12:38:21;2.53;;;2.10;;
19798;SDS011;10059;59.850;10.454;2023-02-22T12:40:55;4.53;;;2.00;;
19798;SDS011;10059;59.850;10.454;2023-02-22T12:43:28;4.03;;;2.30;;
19798;SDS011;10059;59.850;10.454;2023-02-22T12:46:03;2.63;;;1.37;;
19798;SDS011;10059;59.850;10.454;2023-02-22T12:48:39;3.57;;;2.33;;
19798;SDS011;10059;59.850;10.454;2023-02-22T12:51:16;3.50;;;1.90;;
19798;SDS011;10059;59.850;10.454;2023-02-22T12:53:52;4.50;;;2.27;;
19798;SDS011;10059;59.850;10.454;2023-02-22T12:56:27;5.43;;;2.40;;
19798;SDS011;10059;59.850;10.454;2023-02-22T12:58:59;4.20;;;2.00;;
19798;SDS011;10059;59.850;10.454;2023-02-22T13:01:31;5.30;;;1.90;;
19798;SDS011;10059;59.850;10.454;2023-02-22T13:04:03;4.00;;;1.80;;
19798;SDS011;10059;59.850;10.454;2023-02-22T13:06:41;3.13;;;2.00;;
19798;SDS011;10059;59.850;10.454;2023-02-22T13:09:30;4.50;;;2.23;;
19798;SDS011;10059;59.850;10.454;2023-02-22T13:12:08;6.77;;;2.53;;
19798;SDS011;10059;59.850;10.454;2023-02-22T13:14:42;6.77;;;2.40;;
19798;SDS011;10059;59.850;10.454;2023-02-22T13:17:18;6.20;;;2.37;;
19798;SDS011;10059;59.850;10.454;2023-02-22T13:19:51;5.43;;;2.50;;
19798;SDS011;10059;59.850;10.454;2023-02-22T13:22:28;4.00;;;2.53;;
19798;SDS011;10059;59.850;10.454;2023-02-22T13:25:01;2.83;;;2.00;;
19798;SDS011;10059;59.850;10.454;2023-02-22T13:27:37;2.80;;;2.00;;
19798;SDS011;10059;59.850;10.454;2023-02-22T13:30:13;3.53;;;2.10;;
19798;SDS011;10059;59.850;10.454;2023-02-22T13:35:50;3.10;;;1.80;;
19798;SDS011;10059;59.850;10.454;2023-02-22T13:41:44;3.27;;;2.00;;
19798;SDS011;10059;59.850;10.454;2023-02-22T13:44:25;5.13;;;2.40;;
19798;SDS011;10059;59.850;10.454;2023-02-22T13:50:07;2.97;;;2.10;;
19798;SDS011;10059;59.850;10.454;2023-02-22T13:53:06;3.50;;;2.30;;
19798;SDS011;10059;59.850;10.454;2023-02-22T13:55:37;5.10;;;2.10;;
19798;SDS011;10059;59.850;10.454;2023-02-22T13:58:10;5.13;;;2.60;;
19798;SDS011;10059;59.850;10.454;2023-02-22T14:00:39;3.67;;;2.27;;
19798;SDS011;10059;59.850;10.454;2023-02-22T14:03:26;5.27;;;2.30;;
19798;SDS011;10059;59.850;10.454;2023-02-22T14:06:09;5.03;;;2.50;;
19798;SDS011;10059;59.850;10.454;2023-02-22T14:08:58;3.30;;;2.37;;
19798;SDS011;10059;59.850;10.454;2023-02-22T14:14:09;4.17;;;2.40;;
19798;SDS011;10059;59.850;10.454;2023-02-22T14:16:38;4.40;;;2.60;;
19798;SDS011;10059;59.850;10.454;2023-02-22T14:19:12;4.50;;;2.53;;
19798;SDS011;10059;59.850;10.454;2023-02-22T14:21:53;4.13;;;2.13;;
19798;SDS011;10059;59.850;10.454;2023-02-22T14:24:27;5.70;;;2.60;;
19798;SDS011;10059;59.850;10.454;2023-02-22T14:26:57;5.40;;;2.30;;
19798;SDS011;10059;59.850;10.454;2023-02-22T14:29:25;3.37;;;2.10;;
19798;SDS011;10059;59.850;10.454;2023-02-22T14:31:56;5.03;;;2.50;;
19798;SDS011;10059;59.850;10.454;2023-02-22T14:34:38;5.60;;;3.20;;
19798;SDS011;10059;59.850;10.454;2023-02-22T14:37:12;3.57;;;2.13;;
19798;SDS011;10059;59.850;10.454;2023-02-22T14:39:44;8.97;;;3.03;;
19798;SDS011;10059;59.850;10.454;2023-02-22T14:42:14;4.43;;;2.60;;
19798;SDS011;10059;59.850;10.454;2023-02-22T14:44:47;4.20;;;2.60;;
19798;SDS011;10059;59.850;10.454;2023-02-22T14:47:22;4.77;;;2.80;;
19798;SDS011;10059;59.850;10.454;2023-02-22T14:49:54;6.63;;;3.00;;
19798;SDS011;10059;59.850;10.454;2023-02-22T14:52:29;6.50;;;3.53;;
19798;SDS011;10059;59.850;10.454;2023-02-22T14:55:04;6.40;;;3.13;;
19798;SDS011;10059;59.850;10.454;2023-02-22T14:57:42;7.10;;;3.13;;
19798;SDS011;10059;59.850;10.454;2023-02-22T15:00:18;5.33;;;2.80;;
19798;SDS011;10059;59.850;10.454;2023-02-22T15:02:55;3.77;;;2.47;;
19798;SDS011;10059;59.850;10.454;2023-02-22T15:05:24;7.63;;;2.60;;
19798;SDS011;10059;59.850;10.454;2023-02-22T15:07:55;6.83;;;2.77;;
19798;SDS011;10059;59.850;10.454;2023-02-22T15:10:26;4.50;;;2.90;;
19798;SDS011;10059;59.850;10.454;2023-02-22T15:12:59;7.73;;;3.60;;
19798;SDS011;10059;59.850;10.454;2023-02-22T15:15:37;8.93;;;3.67;;